Terminal Aerodrome Forecast
Issued by NWS

Home | Current Version | Previous Version | Text Only | Print | Product List | Glossary On
Versions: 1 2 3 4 5 6 7 8 9 10 11 12 13 14 15 16 17 18
000
FTUS43 KJKL 011733
TAFSME
TAF
KSME 011733Z 0118/0218 25009KT P6SM -SHRA SCT025 BKN050
     FM012030 25006KT P6SM BKN050
     FM020200 VRB03KT P6SM OVC022
     FM020900 VRB03KT 3SM SHRA BR OVC015=

USA.gov is the U.S. government's official web portal to all federal, state and local government web resources and services.